Dallesport, Washington
Current Conditions -  °F | °C
As of 6:53 PM on Sunday 23 Nov 2014 (Local Time) from KDLS Reporting Station
Few Clouds Few Clouds  
Wind Chill: 45°   Ceiling: Unl
Heat Index: 48°   Visibility: 10mi
Dew Point: 42°   Wind: 6mph
Humidity: 80%   Direction: 40°NE
Pressure: 30.25"   Gusts: NA
Location:  45.62°N, 121.17°W
Report Text: KDLS 240253Z AUTO 04005KT 10SM FEW080 09/06 A3025 RMK AO2 SLP244 T00890056 51007 $
Loading
Personal Weather Stations






























Interactive Weather Map New forecast layout! Learn more

10-Day Weather Forecast

Advertisements
Track Severe Weather on mobile